Time;durP1;ratioP1;P1;durP2;ratioP2;P2;SDS_P1;SDS_P2;PMS_P1;PMS_P2;Temp;Humidity;BMP_temperature;BMP_pressure;BME280_temperature;BME280_humidity;BME280_pressure;Samples;Min_cycle;Max_cycle;Signal;HPM_P1;HPM_P2
2022/08/09 00:00:06;;;;;;;7.10;3.27;;;16.70;99.90;;;;;;5133780;27;20039;-70
2022/08/09 00:02:32;;;;;;;7.23;3.67;;;16.60;99.90;;;;;;5133790;27;20062;-70
2022/08/09 00:04:58;;;;;;;6.63;2.97;;;16.60;99.90;;;;;;5133759;27;20078;-70
2022/08/09 00:07:24;;;;;;;5.53;2.63;;;16.60;99.90;;;;;;5133928;27;20054;-70
2022/08/09 00:09:50;;;;;;;8.07;3.10;;;16.50;99.90;;;;;;5133694;27;20047;-71
2022/08/09 00:12:16;;;;;;;7.90;3.17;;;16.50;99.90;;;;;;5133659;27;20068;-70
2022/08/09 00:14:41;;;;;;;8.03;3.40;;;16.50;99.90;;;;;;5134002;27;20402;-70
2022/08/09 00:17:07;;;;;;;6.43;2.87;;;16.50;99.90;;;;;;5133546;28;20604;-70
2022/08/09 00:19:33;;;;;;;5.80;2.93;;;16.40;99.90;;;;;;5133605;28;20055;-70
2022/08/09 00:21:59;;;;;;;7.57;2.87;;;16.40;99.90;;;;;;5133504;28;20043;-70
2022/08/09 00:24:25;;;;;;;5.60;2.60;;;16.40;99.90;;;;;;5133767;28;20039;-70
2022/08/09 00:26:51;;;;;;;5.23;2.93;;;16.40;99.90;;;;;;5115588;28;20510;-72
2022/08/09 00:29:16;;;;;;;6.53;3.30;;;16.40;99.90;;;;;;5133726;28;20039;-70
2022/08/09 00:31:42;;;;;;;5.30;3.30;;;16.40;99.90;;;;;;5133920;28;20053;-70
2022/08/09 00:34:08;;;;;;;5.70;3.20;;;16.40;99.90;;;;;;5132970;28;20036;-70
2022/08/09 00:36:34;;;;;;;6.80;3.40;;;16.40;99.90;;;;;;5133646;28;20043;-70
2022/08/09 00:38:59;;;;;;;6.17;3.40;;;16.40;99.90;;;;;;5133834;28;20463;-70
2022/08/09 00:41:25;;;;;;;5.60;3.60;;;16.30;99.90;;;;;;5133633;28;20047;-70
2022/08/09 00:43:51;;;;;;;5.27;3.00;;;16.20;99.90;;;;;;5133612;28;20089;-70
2022/08/09 00:46:18;;;;;;;5.53;2.90;;;16.30;99.90;;;;;;5133051;28;20075;-70
2022/08/09 00:48:44;;;;;;;7.50;3.00;;;16.20;99.90;;;;;;5133480;28;20097;-70
2022/08/09 00:51:10;;;;;;;6.30;2.90;;;16.20;99.90;;;;;;5133262;28;20047;-70
2022/08/09 00:53:37;;;;;;;5.27;3.10;;;16.20;99.90;;;;;;5133418;28;20035;-70
2022/08/09 00:56:04;;;;;;;6.93;3.10;;;16.10;99.90;;;;;;5133180;28;20051;-71
2022/08/09 00:58:30;;;;;;;6.60;3.13;;;16.10;99.90;;;;;;5133441;28;20054;-70
2022/08/09 01:00:57;;;;;;;8.57;3.50;;;16.10;99.90;;;;;;5133185;28;20039;-71
2022/08/09 01:03:45;;;;;;;4.53;3.00;;;16.10;99.90;;;;;;5115637;28;20390;-70
2022/08/09 01:06:14;;;;;;;5.07;2.97;;;16.10;99.90;;;;;;5132842;28;20495;-70
2022/08/09 01:09:17;;;;;;;6.60;3.40;;;16.00;99.90;;;;;;5133570;28;20079;-70
2022/08/09 01:12:23;;;;;;;7.63;3.17;;;16.10;99.90;;;;;;5042281;28;20567;-70
2022/08/09 01:14:57;;;;;;;6.50;3.07;;;16.00;99.90;;;;;;5115199;28;20437;-70
2022/08/09 01:17:37;;;;;;;6.50;3.13;;;16.00;99.90;;;;;;5133487;28;20441;-70
2022/08/09 01:20:07;;;;;;;6.33;3.30;;;16.00;99.90;;;;;;5133129;28;20055;-70
2022/08/09 01:22:53;;;;;;;9.13;4.13;;;16.00;99.90;;;;;;5133726;27;20091;-70
2022/08/09 01:25:37;;;;;;;;;;;16.10;99.90;;;;;;5137183;27;20053;-70
2022/08/09 01:28:06;;;;;;;6.30;3.43;;;16.00;99.90;;;;;;5118428;27;19920;-71
2022/08/09 01:30:35;;;;;;;6.70;3.23;;;15.90;99.90;;;;;;5136941;27;20059;-70
2022/08/09 01:33:03;;;;;;;7.50;3.77;;;15.90;99.90;;;;;;5136451;27;20047;-70
2022/08/09 01:35:44;;;;;;;5.30;3.23;;;15.90;99.90;;;;;;5136927;27;20688;-70
2022/08/09 01:38:14;;;;;;;5.90;3.60;;;15.90;99.90;;;;;;5118268;27;20096;-71
2022/08/09 01:40:45;;;;;;;6.53;3.43;;;15.90;99.90;;;;;;5136626;27;20088;-70
2022/08/09 01:43:12;;;;;;;9.47;3.57;;;15.80;99.90;;;;;;5136406;27;20650;-70
2022/08/09 01:45:40;;;;;;;7.87;3.47;;;15.80;99.90;;;;;;5136549;27;20054;-70
2022/08/09 01:48:07;;;;;;;5.30;3.23;;;15.80;99.90;;;;;;5118239;27;20495;-70
2022/08/09 01:50:34;;;;;;;6.20;3.50;;;15.80;99.90;;;;;;5136767;27;20050;-70
2022/08/09 01:53:01;;;;;;;7.17;3.73;;;15.70;99.90;;;;;;5118234;27;20043;-70
2022/08/09 01:55:31;;;;;;;6.50;3.70;;;15.70;99.90;;;;;;5117846;27;20296;-70
2022/08/09 01:57:58;;;;;;;6.97;3.80;;;15.70;99.90;;;;;;5118045;27;20051;-70
2022/08/09 02:00:26;;;;;;;6.37;3.83;;;15.70;99.90;;;;;;5136023;27;20047;-70
2022/08/09 02:02:53;;;;;;;6.00;3.13;;;15.70;99.90;;;;;;5136263;27;20035;-70
2022/08/09 02:05:22;;;;;;;5.80;3.27;;;15.60;99.90;;;;;;5135925;27;20624;-70
2022/08/09 02:07:53;;;;;;;5.33;3.40;;;15.60;99.90;;;;;;5136178;27;20436;-70
2022/08/09 02:10:24;;;;;;;6.33;3.73;;;15.60;99.90;;;;;;5135852;27;20275;-70
2022/08/09 02:12:54;;;;;;;5.10;3.50;;;15.60;99.90;;;;;;5136327;27;20288;-70
2022/08/09 02:15:24;;;;;;;6.23;3.50;;;15.60;99.90;;;;;;5135785;27;20349;-70
2022/08/09 02:17:51;;;;;;;6.73;4.17;;;15.60;99.90;;;;;;5135927;27;20277;-70
2022/08/09 02:20:19;;;;;;;6.93;4.10;;;15.60;99.90;;;;;;5113481;28;20362;-70
2022/08/09 02:22:58;;;;;;;7.37;3.90;;;15.60;99.90;;;;;;5115015;28;20838;-70
2022/08/09 02:25:28;;;;;;;6.33;3.90;;;15.50;99.90;;;;;;5115085;28;20624;-70
2022/08/09 02:28:04;;;;;;;7.27;3.60;;;15.60;99.90;;;;;;5115436;28;20336;-70
2022/08/09 02:30:35;;;;;;;6.07;4.23;;;15.50;99.90;;;;;;5114999;28;20676;-70
2022/08/09 02:33:01;;;;;;;5.50;3.97;;;15.50;99.90;;;;;;5115297;28;20294;-70
2022/08/09 02:35:30;;;;;;;7.30;4.57;;;15.50;99.90;;;;;;5113544;28;20276;-70
2022/08/09 02:37:59;;;;;;;5.77;3.97;;;15.50;99.90;;;;;;5115036;28;20342;-70
2022/08/09 02:40:25;;;;;;;5.50;3.90;;;15.50;99.90;;;;;;5114659;28;20277;-70
2022/08/09 02:42:54;;;;;;;6.33;3.80;;;15.50;99.90;;;;;;5114941;28;20659;-70
2022/08/09 02:45:28;;;;;;;6.43;4.30;;;15.40;99.90;;;;;;5113630;28;20290;-70
2022/08/09 02:47:55;;;;;;;7.10;4.03;;;15.40;99.90;;;;;;5115443;28;20074;-70
2022/08/09 02:50:29;;;;;;;7.67;4.57;;;15.40;99.90;;;;;;5114551;28;20399;-70
2022/08/09 02:53:10;;;;;;;6.15;4.05;;;15.40;99.90;;;;;;5114755;28;20350;-70
2022/08/09 02:55:39;;;;;;;7.17;4.50;;;15.40;99.90;;;;;;5114721;28;20044;-70
2022/08/09 02:58:07;;;;;;;5.13;3.60;;;15.30;99.90;;;;;;5114547;28;20298;-70
2022/08/09 03:00:35;;;;;;;6.67;4.40;;;15.30;99.90;;;;;;5114323;28;20281;-70
2022/08/09 03:03:02;;;;;;;6.10;3.97;;;15.30;99.90;;;;;;5114191;28;20637;-70
2022/08/09 03:05:29;;;;;;;7.37;4.30;;;15.30;99.90;;;;;;5114196;28;20281;-70
2022/08/09 03:07:56;;;;;;;6.40;4.37;;;15.30;99.90;;;;;;5114710;28;20694;-70
2022/08/09 03:10:24;;;;;;;5.20;4.40;;;15.30;99.90;;;;;;5114017;28;20328;-70
2022/08/09 03:12:51;;;;;;;7.10;5.60;;;15.30;99.90;;;;;;5114430;28;20687;-70
2022/08/09 03:15:19;;;;;;;6.93;4.93;;;15.30;99.90;;;;;;5113972;28;20339;-70
2022/08/09 03:17:46;;;;;;;7.40;5.10;;;15.30;99.90;;;;;;5114507;28;20273;-70
2022/08/09 03:20:13;;;;;;;6.53;4.50;;;15.30;99.90;;;;;;5127025;27;20304;-70
2022/08/09 03:22:42;;;;;;;9.23;4.43;;;15.30;99.90;;;;;;5134988;27;20483;-70
2022/08/09 03:25:08;;;;;;;6.63;4.30;;;15.20;99.90;;;;;;5134637;27;20690;-70
2022/08/09 03:27:35;;;;;;;7.90;4.17;;;15.20;99.90;;;;;;5134344;27;20459;-70
2022/08/09 03:30:01;;;;;;;6.73;4.10;;;15.10;99.90;;;;;;5134571;27;20281;-70
2022/08/09 03:32:34;;;;;;;8.07;3.97;;;15.20;99.90;;;;;;5134086;27;20306;-70
2022/08/09 03:34:59;;;;;;;6.23;4.03;;;15.20;99.90;;;;;;5134629;27;20272;-70
2022/08/09 03:37:27;;;;;;;6.97;4.53;;;15.20;99.90;;;;;;5134219;27;20279;-70
2022/08/09 03:39:52;;;;;;;8.53;4.03;;;15.20;99.90;;;;;;5134491;27;20136;-70
2022/08/09 03:42:18;;;;;;;5.47;4.10;;;15.10;99.90;;;;;;5134056;27;20744;-71
2022/08/09 03:44:44;;;;;;;7.50;4.00;;;15.20;99.90;;;;;;5134264;27;20043;-70
2022/08/09 03:47:10;;;;;;;6.73;3.83;;;15.10;99.90;;;;;;5133812;27;20043;-70
2022/08/09 03:49:37;;;;;;;5.77;4.00;;;15.10;99.90;;;;;;5133968;27;20035;-70
2022/08/09 03:52:06;;;;;;;6.23;4.13;;;15.10;99.90;;;;;;5134245;27;20053;-70
2022/08/09 03:54:36;;;;;;;7.03;4.43;;;15.10;99.90;;;;;;5133825;27;20656;-70
2022/08/09 03:57:09;;;;;;;6.80;4.30;;;15.00;99.90;;;;;;5115924;27;20313;-70
2022/08/09 03:59:35;;;;;;;8.07;4.57;;;15.10;99.90;;;;;;5133832;27;20291;-70
2022/08/09 04:02:02;;;;;;;7.53;4.13;;;15.10;99.90;;;;;;5134074;27;20371;-70
2022/08/09 04:04:29;;;;;;;7.83;4.47;;;15.00;99.90;;;;;;5133829;27;20047;-70
2022/08/09 04:06:56;;;;;;;7.27;4.80;;;15.00;99.90;;;;;;5133968;27;20281;-70
2022/08/09 04:09:23;;;;;;;6.67;3.97;;;15.00;99.90;;;;;;5133700;27;20371;-70
2022/08/09 04:12:07;;;;;;;6.80;4.77;;;15.00;99.90;;;;;;5115654;27;20325;-70
2022/08/09 04:14:33;;;;;;;7.83;4.37;;;15.00;99.90;;;;;;5115227;28;20292;-70
2022/08/09 04:16:59;;;;;;;8.10;4.73;;;14.90;99.90;;;;;;5133958;27;20083;-70
2022/08/09 04:19:25;;;;;;;7.33;4.50;;;14.90;99.90;;;;;;5133387;28;20137;-70
2022/08/09 04:21:51;;;;;;;7.00;4.03;;;14.90;99.90;;;;;;5133793;28;20039;-70
2022/08/09 04:24:17;;;;;;;6.37;4.20;;;14.90;99.90;;;;;;5134218;28;20043;-70
2022/08/09 04:26:42;;;;;;;6.53;4.47;;;14.80;99.90;;;;;;5133500;28;20367;-70
2022/08/09 04:29:08;;;;;;;7.07;4.20;;;14.90;99.90;;;;;;5115588;28;20364;-70
2022/08/09 04:31:34;;;;;;;7.03;5.00;;;14.90;99.90;;;;;;5133498;28;20440;-70
2022/08/09 04:34:00;;;;;;;7.47;4.83;;;15.00;99.90;;;;;;5133638;28;20100;-70
2022/08/09 04:36:27;;;;;;;8.17;5.30;;;15.00;99.90;;;;;;5133393;28;20039;-70
2022/08/09 04:38:56;;;;;;;6.40;4.43;;;14.90;99.90;;;;;;5133691;28;20078;-70
2022/08/09 04:41:22;;;;;;;10.10;4.97;;;14.90;99.90;;;;;;5133690;28;20288;-70
2022/08/09 04:43:48;;;;;;;6.50;4.80;;;14.90;99.90;;;;;;5133419;28;20819;-70
2022/08/09 04:46:13;;;;;;;10.10;5.07;;;14.90;99.90;;;;;;5133698;28;20039;-70
2022/08/09 04:48:39;;;;;;;8.50;4.50;;;14.90;99.90;;;;;;5133392;28;20391;-70
2022/08/09 04:51:05;;;;;;;7.50;5.07;;;14.90;99.90;;;;;;5134146;28;20130;-70
2022/08/09 04:53:31;;;;;;;8.00;5.33;;;15.00;99.90;;;;;;5133288;28;20468;-70
2022/08/09 04:55:57;;;;;;;9.00;6.20;;;15.00;99.90;;;;;;5133858;28;20135;-70
2022/08/09 04:58:23;;;;;;;6.60;5.23;;;15.00;99.90;;;;;;5135399;27;20126;-70
2022/08/09 05:00:49;;;;;;;7.70;6.30;;;15.00;99.90;;;;;;5137520;27;20364;-70
2022/08/09 05:03:14;;;;;;;8.17;5.43;;;15.00;99.90;;;;;;5137446;27;20042;-70
2022/08/09 05:05:40;;;;;;;6.07;5.20;;;15.00;99.90;;;;;;5137194;27;20491;-70
2022/08/09 05:08:06;;;;;;;8.00;5.33;;;15.10;99.90;;;;;;5137121;27;20054;-70
2022/08/09 05:10:32;;;;;;;7.47;5.27;;;15.10;99.90;;;;;;5136977;27;20051;-70
2022/08/09 05:12:57;;;;;;;7.90;5.40;;;15.10;99.90;;;;;;5137471;27;20043;-70
2022/08/09 05:15:23;;;;;;;6.53;4.80;;;15.20;99.90;;;;;;5137198;27;20443;-70
2022/08/09 05:17:49;;;;;;;9.40;5.20;;;15.20;99.90;;;;;;5136869;27;20086;-70
2022/08/09 05:20:15;;;;;;;7.93;5.47;;;15.30;99.90;;;;;;5136705;27;20059;-70
2022/08/09 05:22:41;;;;;;;7.90;5.90;;;15.30;99.90;;;;;;5136838;27;20281;-70
2022/08/09 05:25:07;;;;;;;6.57;5.10;;;15.40;99.90;;;;;;5137191;27;20051;-70
2022/08/09 05:27:33;;;;;;;7.63;5.40;;;15.40;99.90;;;;;;5138965;27;20122;-70
2022/08/09 05:29:58;;;;;;;9.20;6.27;;;15.50;99.90;;;;;;5136983;27;20364;-70
2022/08/09 05:32:24;;;;;;;7.90;5.40;;;15.50;99.90;;;;;;5137181;27;20463;-70
2022/08/09 05:34:50;;;;;;;8.10;5.80;;;15.60;99.90;;;;;;5136564;27;20970;-70
2022/08/09 05:37:17;;;;;;;11.57;6.20;;;15.70;99.90;;;;;;5136953;27;20312;-70
2022/08/09 05:39:42;;;;;;;8.83;5.93;;;15.80;99.90;;;;;;5139139;27;20046;-71
2022/08/09 05:42:08;;;;;;;8.90;6.27;;;15.90;99.90;;;;;;5142156;27;20292;-70
2022/08/09 05:44:34;;;;;;;8.67;5.93;;;16.10;99.90;;;;;;5136428;27;20044;-71
2022/08/09 05:47:00;;;;;;;9.83;6.40;;;16.20;99.90;;;;;;5136567;27;20277;-71
2022/08/09 05:49:26;;;;;;;12.00;6.77;;;16.30;99.90;;;;;;5136588;27;20058;-73
2022/08/09 05:51:51;;;;;;;9.40;5.70;;;16.50;99.90;;;;;;5135889;27;20058;-73
2022/08/09 05:54:17;;;;;;;8.03;5.50;;;16.80;99.90;;;;;;5136404;27;20065;-72
2022/08/09 05:56:43;;;;;;;7.97;5.40;;;17.30;99.90;;;;;;5136160;27;20483;-73
2022/08/09 05:59:08;;;;;;;8.93;5.10;;;18.70;99.90;;;;;;5136355;27;20049;-71
2022/08/09 06:01:34;;;;;;;8.10;5.07;;;20.10;99.90;;;;;;5136128;27;20097;-71
2022/08/09 06:04:01;;;;;;;6.57;4.23;;;21.80;99.90;;;;;;5136594;27;20088;-74
2022/08/09 06:06:27;;;;;;;7.43;4.10;;;22.80;99.90;;;;;;5136211;27;20054;-73
2022/08/09 06:08:53;;;;;;;7.63;5.03;;;23.40;99.90;;;;;;5135445;27;20047;-74
2022/08/09 06:11:19;;;;;;;6.10;4.10;;;24.40;99.90;;;;;;5117792;27;20046;-73
2022/08/09 06:13:45;;;;;;;8.20;4.47;;;25.20;99.90;;;;;;5135703;27;20040;-72
2022/08/09 06:16:10;;;;;;;5.43;3.17;;;26.40;95.00;;;;;;5136343;27;20116;-72
2022/08/09 06:18:36;;;;;;;7.13;3.53;;;26.50;96.00;;;;;;5117674;27;20467;-74
2022/08/09 06:21:03;;;;;;;7.53;3.63;;;27.00;91.30;;;;;;5136218;27;20063;-73
2022/08/09 06:23:31;;;;;;;4.93;3.37;;;27.30;87.50;;;;;;5136084;27;20043;-73
2022/08/09 06:25:57;;;;;;;7.43;2.97;;;;;;;;;;5135771;27;20046;-73
2022/08/09 06:28:23;;;;;;;6.10;3.07;;;27.80;98.00;;;;;;5135944;27;20482;-72
2022/08/09 06:30:49;;;;;;;5.93;3.17;;;28.40;73.10;;;;;;5135697;27;20043;-73
2022/08/09 06:33:15;;;;;;;5.80;2.90;;;28.60;69.10;;;;;;5135569;27;20546;-73
2022/08/09 06:35:40;;;;;;;5.33;2.70;;;29.10;80.20;;;;;;5135585;27;20180;-73
2022/08/09 06:38:06;;;;;;;5.03;2.40;;;29.10;73.80;;;;;;5135706;27;20387;-73
2022/08/09 06:40:32;;;;;;;5.93;3.07;;;29.50;63.20;;;;;;5135643;27;20053;-72
2022/08/09 06:42:59;;;;;;;6.97;3.08;;;29.80;61.30;;;;;;5135466;27;20042;-73
2022/08/09 06:45:26;;;;;;;6.97;2.67;;;;;;;;;;5135606;27;20053;-73
2022/08/09 06:47:52;;;;;;;8.25;2.90;;;;;;;;;;5135354;27;20043;-73
2022/08/09 06:50:19;;;;;;;6.78;2.72;;;;;;;;;;5135530;27;20043;-73
2022/08/09 06:52:45;;;;;;;5.45;2.70;;;;;;;;;;5135119;27;20395;-73
2022/08/09 06:55:16;;;;;;;8.30;3.03;;;30.50;52.30;;;;;;5135453;27;20039;-73
2022/08/09 06:57:43;;;;;;;6.40;2.80;;;30.60;54.70;;;;;;5135128;27;20058;-73
2022/08/09 07:00:10;;;;;;;5.57;3.08;;;30.90;53.40;;;;;;5135350;27;20118;-73
2022/08/09 07:02:36;;;;;;;6.20;2.53;;;30.90;53.10;;;;;;5117195;27;20047;-73
2022/08/09 07:05:02;;;;;;;5.28;2.70;;;31.10;52.70;;;;;;5134973;27;20490;-73
2022/08/09 07:07:28;;;;;;;4.85;2.47;;;31.20;52.10;;;;;;5134941;27;20501;-71
2022/08/09 07:09:54;;;;;;;6.07;2.90;;;31.30;51.70;;;;;;5134982;27;20125;-73
2022/08/09 07:12:20;;;;;;;7.18;2.97;;;31.20;51.20;;;;;;5117195;27;20360;-73
2022/08/09 07:14:47;;;;;;;6.05;2.97;;;30.90;51.50;;;;;;5134779;27;20050;-70
2022/08/09 07:17:13;;;;;;;5.88;2.83;;;31.20;50.50;;;;;;5135005;27;20050;-70
2022/08/09 07:19:39;;;;;;;4.78;2.50;;;31.10;51.20;;;;;;5134683;27;20376;-70
2022/08/09 07:22:05;;;;;;;4.75;2.63;;;;;;;;;;5134086;27;20104;-70
2022/08/09 07:24:31;;;;;;;5.78;2.63;;;31.10;54.90;;;;;;5134853;27;20122;-70
2022/08/09 07:26:57;;;;;;;5.03;1.98;;;30.80;51.00;;;;;;5134658;27;20126;-70
2022/08/09 07:29:23;;;;;;;5.93;2.58;;;30.80;51.20;;;;;;5134776;27;20039;-73
2022/08/09 07:31:49;;;;;;;4.85;2.30;;;31.10;50.70;;;;;;5134220;27;20054;-71
2022/08/09 07:34:15;;;;;;;5.43;2.40;;;30.90;50.80;;;;;;5134735;27;20071;-71
2022/08/09 07:36:40;;;;;;;4.90;2.80;;;31.30;51.00;;;;;;5134630;27;20420;-71
2022/08/09 07:39:06;;;;;;;5.45;2.13;;;31.50;49.70;;;;;;5134438;27;20039;-71
2022/08/09 07:41:32;;;;;;;3.35;1.90;;;30.90;49.70;;;;;;5134681;27;20514;-71
2022/08/09 07:43:58;;;;;;;4.72;2.40;;;30.70;50.60;;;;;;5116237;27;20372;-71
2022/08/09 07:46:24;;;;;;;4.35;1.98;;;30.30;50.90;;;;;;5116334;27;20050;-70
2022/08/09 07:48:50;;;;;;;3.95;2.00;;;30.80;50.30;;;;;;5134222;27;20046;-71
2022/08/09 07:51:16;;;;;;;4.97;2.28;;;30.80;50.80;;;;;;5116114;27;20089;-70
2022/08/09 07:53:41;;;;;;;3.65;1.83;;;31.50;50.20;;;;;;5134378;27;20099;-70
2022/08/09 07:56:07;;;;;;;4.40;1.92;;;31.10;48.80;;;;;;5133853;27;20046;-71
2022/08/09 07:58:33;;;;;;;4.13;1.58;;;;;;;;;;5116219;27;20058;-70
2022/08/09 08:01:00;;;;;;;4.95;1.80;;;;;;;;;;5134080;27;20054;-71
2022/08/09 08:03:26;;;;;;;4.75;1.45;;;;;;;;;;5134177;27;20043;-71
2022/08/09 08:05:52;;;;;;;3.85;1.77;;;;;;;;;;5133921;27;20043;-71
2022/08/09 08:08:18;;;;;;;3.78;1.60;;;28.60;51.50;;;;;;5134481;27;20094;-70
2022/08/09 08:10:43;;;;;;;3.53;1.55;;;27.60;52.70;;;;;;5134169;27;20100;-70
2022/08/09 08:13:09;;;;;;;3.03;1.45;;;26.70;55.00;;;;;;5133858;27;20380;-70
2022/08/09 08:15:35;;;;;;;3.40;1.60;;;26.50;56.80;;;;;;5134082;27;20406;-70
2022/08/09 08:18:00;;;;;;;4.78;1.85;;;26.00;58.70;;;;;;5133848;27;20046;-70
2022/08/09 08:20:28;;;;;;;7.18;2.13;;;25.60;59.40;;;;;;5133565;28;20137;-70
2022/08/09 08:22:54;;;;;;;2.88;1.38;;;25.20;62.40;;;;;;5133823;28;20082;-70
2022/08/09 08:25:20;;;;;;;5.15;1.80;;;25.10;63.80;;;;;;5134116;28;20545;-72
2022/08/09 08:27:46;;;;;;;4.65;2.00;;;24.80;66.20;;;;;;5133916;28;20100;-71
2022/08/09 08:30:17;;;;;;;5.63;1.73;;;24.70;68.20;;;;;;5133690;28;20055;-71
2022/08/09 08:32:43;;;;;;;4.40;1.50;;;24.50;68.70;;;;;;5136502;27;20042;-71
2022/08/09 08:35:09;;;;;;;5.23;1.50;;;24.30;70.40;;;;;;5137710;27;20060;-71
2022/08/09 08:37:35;;;;;;;4.73;1.20;;;24.20;72.60;;;;;;5138584;27;20039;-71
2022/08/09 08:40:05;;;;;;;3.63;1.50;;;24.30;72.60;;;;;;5137877;27;20047;-70
2022/08/09 08:42:32;;;;;;;3.60;1.43;;;24.30;73.20;;;;;;5138045;27;20184;-71
2022/08/09 08:44:59;;;;;;;2.73;1.30;;;24.30;73.70;;;;;;5137773;27;20506;-71
2022/08/09 08:47:26;;;;;;;4.07;1.53;;;24.40;73.30;;;;;;5137916;27;20108;-71
2022/08/09 08:49:53;;;;;;;3.20;1.30;;;24.20;73.70;;;;;;5138182;27;20043;-70
2022/08/09 08:52:21;;;;;;;3.30;2.00;;;23.90;74.70;;;;;;5102287;27;20160;-71
2022/08/09 08:54:47;;;;;;;3.70;1.80;;;23.60;75.90;;;;;;5137808;27;20104;-70
2022/08/09 08:57:14;;;;;;;2.90;1.23;;;23.50;78.50;;;;;;5137666;27;20053;-71
2022/08/09 08:59:40;;;;;;;3.40;1.13;;;23.60;79.50;;;;;;5137824;27;20039;-71
2022/08/09 09:02:07;;;;;;;3.53;1.17;;;23.60;76.10;;;;;;5137475;27;20116;-71
2022/08/09 09:04:36;;;;;;;2.10;0.90;;;23.60;74.30;;;;;;5137767;27;20592;-70
2022/08/09 09:07:08;;;;;;;4.23;1.27;;;23.40;72.90;;;;;;5137339;27;20384;-71
2022/08/09 09:09:36;;;;;;;2.07;1.10;;;23.30;72.60;;;;;;5119409;27;20130;-70
2022/08/09 09:12:02;;;;;;;2.33;1.30;;;23.10;73.70;;;;;;5137354;27;20047;-71
2022/08/09 09:14:29;;;;;;;3.57;1.10;;;22.90;76.40;;;;;;5137247;27;20523;-71
2022/08/09 09:16:55;;;;;;;4.17;1.20;;;22.70;79.60;;;;;;5137369;27;20043;-71
2022/08/09 09:19:21;;;;;;;3.33;1.10;;;22.60;80.70;;;;;;5136863;27;20076;-72
2022/08/09 09:22:03;;;;;;;2.87;1.00;;;22.60;83.10;;;;;;5137302;27;20055;-71
2022/08/09 09:24:34;;;;;;;2.80;1.10;;;22.70;82.50;;;;;;5137306;27;20491;-71
2022/08/09 09:27:01;;;;;;;2.80;1.20;;;22.80;82.50;;;;;;5118922;27;20467;-71
2022/08/09 09:29:33;;;;;;;2.00;1.07;;;23.00;82.00;;;;;;5136838;27;20525;-71
2022/08/09 09:31:59;;;;;;;3.70;1.10;;;23.10;83.00;;;;;;5137122;27;20496;-71
2022/08/09 09:34:25;;;;;;;2.93;1.23;;;23.40;82.20;;;;;;5119067;27;20079;-71
2022/08/09 09:36:51;;;;;;;2.93;1.17;;;23.50;80.30;;;;;;5137013;27;20078;-72
2022/08/09 09:39:17;;;;;;;2.13;1.30;;;23.70;79.50;;;;;;5136528;27;20119;-71
2022/08/09 09:41:43;;;;;;;2.60;1.17;;;23.80;79.70;;;;;;5136896;27;20043;-72
2022/08/09 09:44:09;;;;;;;4.70;1.77;;;23.80;79.70;;;;;;5135887;27;20039;-72
2022/08/09 09:46:38;;;;;;;3.07;1.30;;;23.70;80.70;;;;;;5136783;27;20384;-72
2022/08/09 09:49:05;;;;;;;3.83;1.17;;;23.80;81.80;;;;;;5136620;27;20046;-72
2022/08/09 09:51:32;;;;;;;2.83;1.10;;;23.80;81.90;;;;;;5118450;27;20043;-72
2022/08/09 09:54:13;;;;;;;2.63;1.23;;;23.80;83.70;;;;;;5136552;27;20043;-72
2022/08/09 09:56:42;;;;;;;4.67;1.53;;;23.90;85.90;;;;;;5136660;27;20043;-72
2022/08/09 09:59:09;;;;;;;4.07;1.50;;;24.00;85.10;;;;;;5136356;27;20047;-72
2022/08/09 10:01:36;;;;;;;4.13;1.33;;;23.90;86.10;;;;;;5136562;27;20047;-72
2022/08/09 10:04:17;;;;;;;4.73;1.60;;;23.90;86.70;;;;;;5136456;27;20078;-71
2022/08/09 10:06:45;;;;;;;3.47;1.40;;;23.70;87.70;;;;;;5136666;27;20035;-72
2022/08/09 10:09:14;;;;;;;3.77;1.60;;;23.80;89.00;;;;;;5136149;27;20479;-72
2022/08/09 10:11:40;;;;;;;3.23;1.50;;;23.80;87.30;;;;;;5136457;27;20051;-71
2022/08/09 10:14:18;;;;;;;3.90;1.47;;;23.80;86.10;;;;;;5136065;27;20035;-72
2022/08/09 10:16:44;;;;;;;2.93;1.23;;;23.70;87.00;;;;;;5136473;27;20050;-72
2022/08/09 10:19:10;;;;;;;3.93;1.30;;;23.70;87.00;;;;;;5135801;27;20420;-72
2022/08/09 10:21:46;;;;;;;3.17;1.30;;;23.90;84.90;;;;;;5136196;27;20098;-72
2022/08/09 10:24:13;;;;;;;4.13;1.20;;;24.00;82.90;;;;;;5135846;27;20043;-72
2022/08/09 10:26:39;;;;;;;2.20;1.20;;;23.80;82.90;;;;;;5135661;27;20506;-72
2022/08/09 10:29:05;;;;;;;1.93;0.90;;;23.80;82.50;;;;;;5135991;27;20044;-72
2022/08/09 10:31:30;;;;;;;2.50;1.00;;;23.70;79.90;;;;;;5135709;27;20043;-71
2022/08/09 10:33:57;;;;;;;2.60;1.10;;;23.40;80.20;;;;;;5135808;27;20424;-71
2022/08/09 10:36:23;;;;;;;2.70;1.03;;;23.40;80.60;;;;;;5135646;27;20043;-72
2022/08/09 10:38:49;;;;;;;3.27;1.20;;;23.60;80.30;;;;;;5135851;27;20046;-72
2022/08/09 10:41:17;;;;;;;1.80;0.93;;;23.60;79.30;;;;;;5135569;27;20509;-72
2022/08/09 10:43:45;;;;;;;1.83;1.10;;;23.80;79.50;;;;;;5117490;27;20367;-71
2022/08/09 10:46:37;;;;;;;4.03;1.20;;;24.00;78.80;;;;;;5135473;27;20549;-72
2022/08/09 10:49:15;;;;;;;2.43;1.10;;;24.20;76.80;;;;;;5121387;27;20055;-72
2022/08/09 10:51:57;;;;;;;3.00;1.20;;;24.10;76.30;;;;;;5117192;27;20069;-72
2022/08/09 10:54:24;;;;;;;2.80;1.20;;;24.10;75.30;;;;;;5116893;27;20046;-72
2022/08/09 10:57:12;;;;;;;3.03;1.17;;;24.10;76.10;;;;;;5134640;27;20051;-72
2022/08/09 10:59:40;;;;;;;2.17;1.00;;;24.00;74.80;;;;;;5135597;27;20099;-72
2022/08/09 11:02:08;;;;;;;3.90;1.60;;;23.90;76.40;;;;;;5135294;27;20104;-72
2022/08/09 11:04:34;;;;;;;2.67;1.10;;;23.80;76.50;;;;;;5135038;27;20055;-71
2022/08/09 11:07:00;;;;;;;2.97;1.47;;;23.70;77.40;;;;;;5135499;27;20042;-72
2022/08/09 11:09:38;;;;;;;3.13;1.20;;;23.90;79.00;;;;;;5134960;27;20386;-72
2022/08/09 11:12:16;;;;;;;2.50;1.30;;;24.00;79.70;;;;;;5135140;27;20043;-72
2022/08/09 11:14:53;;;;;;;2.37;1.00;;;23.90;79.60;;;;;;5134690;27;20517;-72
2022/08/09 11:17:19;;;;;;;3.80;1.20;;;24.10;80.20;;;;;;5134881;27;20047;-72
2022/08/09 11:20:07;;;;;;;3.83;1.10;;;24.20;78.80;;;;;;5134875;27;20058;-72
2022/08/09 11:22:39;;;;;;;5.13;1.73;;;24.30;78.00;;;;;;5134435;27;20446;-72
2022/08/09 11:25:09;;;;;;;2.47;1.20;;;24.20;77.50;;;;;;5135045;27;20043;-72
2022/08/09 11:27:47;;;;;;;2.77;1.10;;;24.30;78.10;;;;;;5134721;27;20055;-72
2022/08/09 11:30:14;;;;;;;2.30;1.00;;;24.20;77.90;;;;;;5134933;27;20399;-72
2022/08/09 11:32:49;;;;;;;2.47;0.97;;;24.20;77.50;;;;;;5099822;27;20058;-72
2022/08/09 11:35:17;;;;;;;2.50;0.93;;;24.00;75.80;;;;;;5134593;27;20083;-72
2022/08/09 11:37:46;;;;;;;1.97;0.90;;;23.70;75.90;;;;;;5135222;27;20139;-72
2022/08/09 11:40:27;;;;;;;3.97;1.30;;;23.60;76.60;;;;;;5134612;27;20188;-72
2022/08/09 11:42:54;;;;;;;3.37;1.10;;;23.60;76.90;;;;;;5134874;27;20508;-72
2022/08/09 11:45:31;;;;;;;2.87;1.07;;;23.70;77.40;;;;;;5134330;27;20387;-72
2022/08/09 11:47:59;;;;;;;3.57;1.10;;;23.70;77.20;;;;;;5134773;27;20057;-72
2022/08/09 11:50:27;;;;;;;2.90;1.00;;;23.90;77.60;;;;;;5134230;27;20051;-72
2022/08/09 11:52:58;;;;;;;1.20;0.90;;;24.00;75.90;;;;;;5116242;27;20046;-72
2022/08/09 11:55:31;;;;;;;2.33;1.00;;;23.90;75.90;;;;;;5134156;27;20051;-72
2022/08/09 11:57:59;;;;;;;1.87;1.00;;;23.80;77.10;;;;;;5134386;27;20069;-72
2022/08/09 12:00:30;;;;;;;1.73;1.13;;;23.80;76.80;;;;;;5134127;27;20087;-72
2022/08/09 12:02:58;;;;;;;2.63;1.00;;;23.80;75.70;;;;;;5134314;27;20055;-72
2022/08/09 12:05:34;;;;;;;3.73;1.20;;;23.90;75.10;;;;;;5134004;27;20096;-72
2022/08/09 12:08:07;;;;;;;1.57;0.80;;;24.00;74.90;;;;;;5134011;27;20047;-72
2022/08/09 12:10:33;;;;;;;1.33;1.00;;;23.90;74.80;;;;;;5134053;27;20046;-72
2022/08/09 12:12:59;;;;;;;1.73;0.83;;;23.80;74.50;;;;;;5134081;27;20051;-71
2022/08/09 12:15:27;;;;;;;2.67;0.90;;;23.70;74.90;;;;;;5133892;27;20045;-72
2022/08/09 12:17:53;;;;;;;2.40;0.80;;;23.60;75.20;;;;;;5116310;27;20393;-72
2022/08/09 12:20:25;;;;;;;1.90;1.03;;;23.50;75.00;;;;;;5134024;27;20407;-71
2022/08/09 12:22:56;;;;;;;1.57;0.83;;;23.50;75.40;;;;;;5134160;28;20051;-72
2022/08/09 12:25:24;;;;;;;2.10;1.00;;;23.50;75.60;;;;;;5115684;28;20418;-72
2022/08/09 12:28:17;;;;;;;3.03;1.10;;;23.60;74.90;;;;;;5134043;28;20043;-72
2022/08/09 12:30:43;;;;;;;1.97;1.10;;;23.60;75.40;;;;;;5133800;28;20086;-72
2022/08/09 12:33:10;;;;;;;2.03;1.00;;;23.50;74.40;;;;;;5134032;28;20083;-71
2022/08/09 12:35:37;;;;;;;4.10;1.00;;;23.50;75.40;;;;;;5133706;28;20043;-72
2022/08/09 12:38:20;;;;;;;2.93;1.17;;;23.50;75.90;;;;;;5133912;28;20100;-72
2022/08/09 12:40:47;;;;;;;3.33;1.20;;;23.60;75.40;;;;;;5133777;28;20056;-72
2022/08/09 12:43:15;;;;;;;3.23;1.20;;;23.80;74.30;;;;;;5133852;28;20043;-72
2022/08/09 12:45:41;;;;;;;1.67;0.93;;;23.70;73.90;;;;;;5133641;28;20122;-71
2022/08/09 12:48:08;;;;;;;2.03;0.90;;;23.60;72.90;;;;;;5133994;28;20100;-71
2022/08/09 12:50:35;;;;;;;3.23;1.10;;;23.60;73.80;;;;;;5133693;28;20119;-72
2022/08/09 12:53:01;;;;;;;2.17;1.00;;;23.60;74.60;;;;;;5133665;28;20051;-72
2022/08/09 12:55:31;;;;;;;3.03;0.80;;;23.60;74.60;;;;;;5133704;28;20120;-72